sensor_id;sensor_type;location;lat;lon;timestamp;temperature;humidity
13682;DHT22;6913;49.892;7.936;2023-12-20T00:01:01;6.30;99.90
13682;DHT22;6913;49.892;7.936;2023-12-20T00:03:28;5.20;99.90
13682;DHT22;6913;49.892;7.936;2023-12-20T00:05:55;5.30;99.90
13682;DHT22;6913;49.892;7.936;2023-12-20T00:08:22;5.50;99.90
13682;DHT22;6913;49.892;7.936;2023-12-20T00:10:49;5.20;99.90
13682;DHT22;6913;49.892;7.936;2023-12-20T00:13:16;5.20;99.90
13682;DHT22;6913;49.892;7.936;2023-12-20T00:15:43;6.00;99.90
13682;DHT22;6913;49.892;7.936;2023-12-20T00:18:12;4.70;99.90
13682;DHT22;6913;49.892;7.936;2023-12-20T00:20:39;5.40;99.90
13682;DHT22;6913;49.892;7.936;2023-12-20T00:23:06;5.50;99.90
13682;DHT22;6913;49.892;7.936;2023-12-20T00:25:33;5.20;99.90
13682;DHT22;6913;49.892;7.936;2023-12-20T00:28:00;5.20;99.90
13682;DHT22;6913;49.892;7.936;2023-12-20T00:30:27;5.50;99.90
13682;DHT22;6913;49.892;7.936;2023-12-20T00:32:55;5.20;99.90
13682;DHT22;6913;49.892;7.936;2023-12-20T00:35:24;5.90;99.90
13682;DHT22;6913;49.892;7.936;2023-12-20T00:37:51;5.20;99.90
13682;DHT22;6913;49.892;7.936;2023-12-20T00:40:18;6.10;99.90
13682;DHT22;6913;49.892;7.936;2023-12-20T00:42:46;5.20;99.90
13682;DHT22;6913;49.892;7.936;2023-12-20T00:45:13;5.20;99.90
13682;DHT22;6913;49.892;7.936;2023-12-20T00:47:41;5.30;99.90
13682;DHT22;6913;49.892;7.936;2023-12-20T00:50:08;5.20;99.90
13682;DHT22;6913;49.892;7.936;2023-12-20T00:52:37;5.20;99.90
13682;DHT22;6913;49.892;7.936;2023-12-20T00:55:04;5.20;99.90
13682;DHT22;6913;49.892;7.936;2023-12-20T00:57:32;5.20;99.90
13682;DHT22;6913;49.892;7.936;2023-12-20T00:59:59;5.30;99.90
13682;DHT22;6913;49.892;7.936;2023-12-20T01:02:26;5.50;99.90
13682;DHT22;6913;49.892;7.936;2023-12-20T01:04:53;5.20;99.90
13682;DHT22;6913;49.892;7.936;2023-12-20T01:07:20;5.30;99.90
13682;DHT22;6913;49.892;7.936;2023-12-20T01:09:48;5.50;99.90
13682;DHT22;6913;49.892;7.936;2023-12-20T01:12:15;5.20;99.90
13682;DHT22;6913;49.892;7.936;2023-12-20T01:14:42;5.20;99.90
13682;DHT22;6913;49.892;7.936;2023-12-20T01:17:09;5.90;99.90
13682;DHT22;6913;49.892;7.936;2023-12-20T01:19:36;5.10;99.90
13682;DHT22;6913;49.892;7.936;2023-12-20T01:22:03;5.50;99.90
13682;DHT22;6913;49.892;7.936;2023-12-20T01:24:30;5.10;99.90
13682;DHT22;6913;49.892;7.936;2023-12-20T01:26:58;5.20;99.90
13682;DHT22;6913;49.892;7.936;2023-12-20T01:29:25;5.10;99.90
13682;DHT22;6913;49.892;7.936;2023-12-20T01:31:52;5.10;99.90
13682;DHT22;6913;49.892;7.936;2023-12-20T01:34:19;5.10;99.90
13682;DHT22;6913;49.892;7.936;2023-12-20T01:36:46;5.40;99.90
13682;DHT22;6913;49.892;7.936;2023-12-20T01:39:13;5.30;99.90
13682;DHT22;6913;49.892;7.936;2023-12-20T01:41:40;5.70;99.90
13682;DHT22;6913;49.892;7.936;2023-12-20T01:44:09;5.40;99.90
13682;DHT22;6913;49.892;7.936;2023-12-20T01:46:36;6.50;99.90
13682;DHT22;6913;49.892;7.936;2023-12-20T01:49:03;5.40;99.90
13682;DHT22;6913;49.892;7.936;2023-12-20T01:51:30;5.10;99.90
13682;DHT22;6913;49.892;7.936;2023-12-20T01:53:57;5.10;99.90
13682;DHT22;6913;49.892;7.936;2023-12-20T01:56:26;5.30;99.90
13682;DHT22;6913;49.892;7.936;2023-12-20T01:58:54;5.10;99.90
13682;DHT22;6913;49.892;7.936;2023-12-20T02:01:23;5.00;99.90
13682;DHT22;6913;49.892;7.936;2023-12-20T02:03:50;5.60;99.90
13682;DHT22;6913;49.892;7.936;2023-12-20T02:06:18;5.00;99.90
13682;DHT22;6913;49.892;7.936;2023-12-20T02:08:45;4.90;99.90
13682;DHT22;6913;49.892;7.936;2023-12-20T02:11:12;5.00;99.90
13682;DHT22;6913;49.892;7.936;2023-12-20T02:13:39;5.50;99.90
13682;DHT22;6913;49.892;7.936;2023-12-20T02:16:06;5.30;99.90
13682;DHT22;6913;49.892;7.936;2023-12-20T02:18:35;5.20;99.90
13682;DHT22;6913;49.892;7.936;2023-12-20T02:21:04;5.10;99.90
13682;DHT22;6913;49.892;7.936;2023-12-20T02:23:32;5.10;99.90
13682;DHT22;6913;49.892;7.936;2023-12-20T02:25:59;5.20;99.90
13682;DHT22;6913;49.892;7.936;2023-12-20T02:28:26;5.10;99.90
13682;DHT22;6913;49.892;7.936;2023-12-20T02:30:54;5.10;99.90
13682;DHT22;6913;49.892;7.936;2023-12-20T02:33:21;5.10;99.90
13682;DHT22;6913;49.892;7.936;2023-12-20T02:35:48;5.10;99.90
13682;DHT22;6913;49.892;7.936;2023-12-20T02:38:15;5.40;99.90
13682;DHT22;6913;49.892;7.936;2023-12-20T02:40:44;5.20;99.90
13682;DHT22;6913;49.892;7.936;2023-12-20T02:43:11;5.20;99.90
13682;DHT22;6913;49.892;7.936;2023-12-20T02:45:38;5.20;99.90
13682;DHT22;6913;49.892;7.936;2023-12-20T02:48:05;5.20;99.90
13682;DHT22;6913;49.892;7.936;2023-12-20T02:50:32;5.20;99.90
13682;DHT22;6913;49.892;7.936;2023-12-20T02:52:59;5.20;99.90
13682;DHT22;6913;49.892;7.936;2023-12-20T02:55:26;5.30;99.90
13682;DHT22;6913;49.892;7.936;2023-12-20T02:57:54;5.20;99.90
13682;DHT22;6913;49.892;7.936;2023-12-20T03:00:21;5.30;99.90
13682;DHT22;6913;49.892;7.936;2023-12-20T03:02:48;5.20;99.90
13682;DHT22;6913;49.892;7.936;2023-12-20T03:05:15;5.20;99.90
13682;DHT22;6913;49.892;7.936;2023-12-20T03:07:42;5.20;99.90
13682;DHT22;6913;49.892;7.936;2023-12-20T03:10:09;5.70;99.90
13682;DHT22;6913;49.892;7.936;2023-12-20T03:12:36;5.60;99.90
13682;DHT22;6913;49.892;7.936;2023-12-20T03:15:05;5.40;99.90
13682;DHT22;6913;49.892;7.936;2023-12-20T03:17:32;5.40;99.90
13682;DHT22;6913;49.892;7.936;2023-12-20T03:19:59;6.50;99.90
13682;DHT22;6913;49.892;7.936;2023-12-20T03:22:25;6.00;99.90
13682;DHT22;6913;49.892;7.936;2023-12-20T03:24:52;5.40;99.90
13682;DHT22;6913;49.892;7.936;2023-12-20T03:27:19;5.50;99.90
13682;DHT22;6913;49.892;7.936;2023-12-20T03:29:46;5.40;99.90
13682;DHT22;6913;49.892;7.936;2023-12-20T03:32:14;6.40;99.90
13682;DHT22;6913;49.892;7.936;2023-12-20T03:34:41;5.40;99.90
13682;DHT22;6913;49.892;7.936;2023-12-20T03:37:08;6.20;99.90
13682;DHT22;6913;49.892;7.936;2023-12-20T03:39:35;5.40;99.90
13682;DHT22;6913;49.892;7.936;2023-12-20T03:42:02;5.40;99.90
13682;DHT22;6913;49.892;7.936;2023-12-20T03:44:29;5.30;99.90
13682;DHT22;6913;49.892;7.936;2023-12-20T03:46:56;5.30;99.90
13682;DHT22;6913;49.892;7.936;2023-12-20T03:49:24;5.30;99.90
13682;DHT22;6913;49.892;7.936;2023-12-20T03:51:51;5.30;99.90
13682;DHT22;6913;49.892;7.936;2023-12-20T03:54:18;5.30;99.90
13682;DHT22;6913;49.892;7.936;2023-12-20T03:56:45;5.30;99.90
13682;DHT22;6913;49.892;7.936;2023-12-20T03:59:12;6.00;99.90
13682;DHT22;6913;49.892;7.936;2023-12-20T04:01:43;5.40;99.90
13682;DHT22;6913;49.892;7.936;2023-12-20T04:04:10;5.30;99.90
13682;DHT22;6913;49.892;7.936;2023-12-20T04:06:38;5.50;99.90
13682;DHT22;6913;49.892;7.936;2023-12-20T04:09:05;5.60;99.90
13682;DHT22;6913;49.892;7.936;2023-12-20T04:11:34;5.30;99.90
13682;DHT22;6913;49.892;7.936;2023-12-20T04:14:01;5.30;99.90
13682;DHT22;6913;49.892;7.936;2023-12-20T04:16:28;5.30;99.90
13682;DHT22;6913;49.892;7.936;2023-12-20T04:18:55;5.30;99.90
13682;DHT22;6913;49.892;7.936;2023-12-20T04:21:22;5.60;99.90
13682;DHT22;6913;49.892;7.936;2023-12-20T04:23:50;5.80;99.90
13682;DHT22;6913;49.892;7.936;2023-12-20T04:26:17;6.70;99.90
13682;DHT22;6913;49.892;7.936;2023-12-20T04:28:44;5.50;99.90
13682;DHT22;6913;49.892;7.936;2023-12-20T04:31:11;5.50;99.90
13682;DHT22;6913;49.892;7.936;2023-12-20T04:33:38;6.60;99.90
13682;DHT22;6913;49.892;7.936;2023-12-20T04:36:05;5.80;99.90
13682;DHT22;6913;49.892;7.936;2023-12-20T04:38:34;5.80;99.90
13682;DHT22;6913;49.892;7.936;2023-12-20T04:41:03;5.80;99.90
13682;DHT22;6913;49.892;7.936;2023-12-20T04:43:30;5.80;99.90
13682;DHT22;6913;49.892;7.936;2023-12-20T04:45:56;5.50;99.90
13682;DHT22;6913;49.892;7.936;2023-12-20T04:48:23;5.80;99.90
13682;DHT22;6913;49.892;7.936;2023-12-20T04:50:51;5.70;99.90
13682;DHT22;6913;49.892;7.936;2023-12-20T04:53:18;5.80;99.90
13682;DHT22;6913;49.892;7.936;2023-12-20T04:55:45;6.40;99.90
13682;DHT22;6913;49.892;7.936;2023-12-20T04:58:13;6.30;99.90
13682;DHT22;6913;49.892;7.936;2023-12-20T05:00:41;5.50;99.90
13682;DHT22;6913;49.892;7.936;2023-12-20T05:03:08;5.40;99.90
13682;DHT22;6913;49.892;7.936;2023-12-20T05:05:35;5.70;99.90
13682;DHT22;6913;49.892;7.936;2023-12-20T05:08:02;5.40;99.90
13682;DHT22;6913;49.892;7.936;2023-12-20T05:10:29;5.30;99.90
13682;DHT22;6913;49.892;7.936;2023-12-20T05:12:56;5.60;99.90
13682;DHT22;6913;49.892;7.936;2023-12-20T05:15:24;5.10;99.90
13682;DHT22;6913;49.892;7.936;2023-12-20T05:17:51;5.40;99.90
13682;DHT22;6913;49.892;7.936;2023-12-20T05:20:18;6.10;99.90
13682;DHT22;6913;49.892;7.936;2023-12-20T05:22:45;5.50;99.90
13682;DHT22;6913;49.892;7.936;2023-12-20T05:25:13;4.90;99.90
13682;DHT22;6913;49.892;7.936;2023-12-20T05:27:39;5.20;99.90
13682;DHT22;6913;49.892;7.936;2023-12-20T05:30:07;4.90;99.90
13682;DHT22;6913;49.892;7.936;2023-12-20T05:32:36;4.50;99.90
13682;DHT22;6913;49.892;7.936;2023-12-20T05:35:03;4.50;99.90
13682;DHT22;6913;49.892;7.936;2023-12-20T05:37:30;4.50;99.90
13682;DHT22;6913;49.892;7.936;2023-12-20T05:39:57;5.20;99.90
13682;DHT22;6913;49.892;7.936;2023-12-20T05:42:24;4.40;99.90
13682;DHT22;6913;49.892;7.936;2023-12-20T05:44:51;4.50;99.90
13682;DHT22;6913;49.892;7.936;2023-12-20T05:47:17;4.70;99.90
13682;DHT22;6913;49.892;7.936;2023-12-20T05:49:46;4.50;99.90
13682;DHT22;6913;49.892;7.936;2023-12-20T05:52:13;4.10;99.90
13682;DHT22;6913;49.892;7.936;2023-12-20T05:54:40;4.30;99.90
13682;DHT22;6913;49.892;7.936;2023-12-20T05:57:07;4.30;99.90
13682;DHT22;6913;49.892;7.936;2023-12-20T05:59:34;3.70;99.90
13682;DHT22;6913;49.892;7.936;2023-12-20T06:02:01;3.80;99.90
13682;DHT22;6913;49.892;7.936;2023-12-20T06:04:27;3.80;99.90
13682;DHT22;6913;49.892;7.936;2023-12-20T06:06:56;3.80;99.90
13682;DHT22;6913;49.892;7.936;2023-12-20T06:09:23;3.80;99.90
13682;DHT22;6913;49.892;7.936;2023-12-20T06:11:50;3.90;99.90
13682;DHT22;6913;49.892;7.936;2023-12-20T06:14:17;3.80;99.90
13682;DHT22;6913;49.892;7.936;2023-12-20T06:16:45;4.20;99.90
13682;DHT22;6913;49.892;7.936;2023-12-20T06:19:12;3.80;99.90
13682;DHT22;6913;49.892;7.936;2023-12-20T06:21:39;3.80;99.90
13682;DHT22;6913;49.892;7.936;2023-12-20T06:24:07;4.20;99.90
13682;DHT22;6913;49.892;7.936;2023-12-20T06:26:35;3.90;99.90
13682;DHT22;6913;49.892;7.936;2023-12-20T06:29:02;4.00;99.90
13682;DHT22;6913;49.892;7.936;2023-12-20T06:31:29;3.90;99.90
13682;DHT22;6913;49.892;7.936;2023-12-20T06:34:00;3.90;99.90
13682;DHT22;6913;49.892;7.936;2023-12-20T06:36:28;4.00;99.90
13682;DHT22;6913;49.892;7.936;2023-12-20T06:38:55;4.00;99.90
13682;DHT22;6913;49.892;7.936;2023-12-20T06:41:24;4.30;99.90
13682;DHT22;6913;49.892;7.936;2023-12-20T06:43:51;4.00;99.90
13682;DHT22;6913;49.892;7.936;2023-12-20T06:46:18;4.40;99.90
13682;DHT22;6913;49.892;7.936;2023-12-20T06:48:45;5.00;99.90
13682;DHT22;6913;49.892;7.936;2023-12-20T06:51:13;4.20;99.90
13682;DHT22;6913;49.892;7.936;2023-12-20T06:53:40;4.10;99.90
13682;DHT22;6913;49.892;7.936;2023-12-20T06:56:08;4.00;99.90
13682;DHT22;6913;49.892;7.936;2023-12-20T06:58:37;4.00;99.90
13682;DHT22;6913;49.892;7.936;2023-12-20T07:01:04;4.00;99.90
13682;DHT22;6913;49.892;7.936;2023-12-20T07:03:31;4.20;99.90
13682;DHT22;6913;49.892;7.936;2023-12-20T07:05:58;4.00;99.90
13682;DHT22;6913;49.892;7.936;2023-12-20T07:08:25;5.10;99.90
13682;DHT22;6913;49.892;7.936;2023-12-20T07:10:51;4.10;99.90
13682;DHT22;6913;49.892;7.936;2023-12-20T07:13:18;4.40;99.90
13682;DHT22;6913;49.892;7.936;2023-12-20T07:15:47;4.10;99.90
13682;DHT22;6913;49.892;7.936;2023-12-20T07:18:14;4.60;99.90
13682;DHT22;6913;49.892;7.936;2023-12-20T07:20:41;4.30;99.90
13682;DHT22;6913;49.892;7.936;2023-12-20T07:23:08;4.30;99.90
13682;DHT22;6913;49.892;7.936;2023-12-20T07:25:35;5.10;99.90
13682;DHT22;6913;49.892;7.936;2023-12-20T07:28:02;4.20;99.90
13682;DHT22;6913;49.892;7.936;2023-12-20T07:30:30;4.30;99.90
13682;DHT22;6913;49.892;7.936;2023-12-20T07:32:58;4.30;99.90
13682;DHT22;6913;49.892;7.936;2023-12-20T07:35:26;4.50;99.90
13682;DHT22;6913;49.892;7.936;2023-12-20T07:37:53;4.30;99.90
13682;DHT22;6913;49.892;7.936;2023-12-20T07:40:20;5.20;99.90
13682;DHT22;6913;49.892;7.936;2023-12-20T07:42:47;4.30;99.90
13682;DHT22;6913;49.892;7.936;2023-12-20T07:45:14;4.30;99.90
13682;DHT22;6913;49.892;7.936;2023-12-20T07:47:41;5.00;99.90
13682;DHT22;6913;49.892;7.936;2023-12-20T07:50:09;4.20;99.90
13682;DHT22;6913;49.892;7.936;2023-12-20T07:52:36;4.60;99.90
13682;DHT22;6913;49.892;7.936;2023-12-20T07:55:03;4.20;99.90
13682;DHT22;6913;49.892;7.936;2023-12-20T07:57:30;4.20;99.90
13682;DHT22;6913;49.892;7.936;2023-12-20T07:59:57;4.80;99.90
13682;DHT22;6913;49.892;7.936;2023-12-20T08:02:24;4.50;99.90
13682;DHT22;6913;49.892;7.936;2023-12-20T08:04:51;4.40;99.90
13682;DHT22;6913;49.892;7.936;2023-12-20T08:07:19;4.80;99.90
13682;DHT22;6913;49.892;7.936;2023-12-20T08:09:46;5.10;99.90
13682;DHT22;6913;49.892;7.936;2023-12-20T08:12:13;5.00;99.90
13682;DHT22;6913;49.892;7.936;2023-12-20T08:14:41;4.90;99.90
13682;DHT22;6913;49.892;7.936;2023-12-20T08:17:08;5.00;99.90
13682;DHT22;6913;49.892;7.936;2023-12-20T08:19:34;5.20;99.90
13682;DHT22;6913;49.892;7.936;2023-12-20T08:22:01;4.90;99.90
13682;DHT22;6913;49.892;7.936;2023-12-20T08:24:30;4.90;99.90
13682;DHT22;6913;49.892;7.936;2023-12-20T08:26:57;5.00;99.90
13682;DHT22;6913;49.892;7.936;2023-12-20T08:29:24;5.10;99.90
13682;DHT22;6913;49.892;7.936;2023-12-20T08:31:52;5.30;99.90
13682;DHT22;6913;49.892;7.936;2023-12-20T08:34:19;5.80;99.90
13682;DHT22;6913;49.892;7.936;2023-12-20T08:36:46;5.20;99.90
13682;DHT22;6913;49.892;7.936;2023-12-20T08:39:13;5.20;99.90
13682;DHT22;6913;49.892;7.936;2023-12-20T08:41:42;5.30;99.90
13682;DHT22;6913;49.892;7.936;2023-12-20T08:44:09;5.60;99.90
13682;DHT22;6913;49.892;7.936;2023-12-20T08:46:36;5.80;99.90
13682;DHT22;6913;49.892;7.936;2023-12-20T08:49:03;5.50;99.90
13682;DHT22;6913;49.892;7.936;2023-12-20T08:51:30;5.90;99.90
13682;DHT22;6913;49.892;7.936;2023-12-20T08:53:57;5.50;99.90
13682;DHT22;6913;49.892;7.936;2023-12-20T08:56:24;5.50;99.90
13682;DHT22;6913;49.892;7.936;2023-12-20T08:58:52;5.60;99.90
13682;DHT22;6913;49.892;7.936;2023-12-20T09:01:19;5.60;99.90
13682;DHT22;6913;49.892;7.936;2023-12-20T09:03:46;5.60;99.90
13682;DHT22;6913;49.892;7.936;2023-12-20T09:06:13;6.10;99.90
13682;DHT22;6913;49.892;7.936;2023-12-20T09:08:40;6.40;99.90
13682;DHT22;6913;49.892;7.936;2023-12-20T09:11:07;6.60;99.90
13682;DHT22;6913;49.892;7.936;2023-12-20T09:13:33;6.70;99.90
13682;DHT22;6913;49.892;7.936;2023-12-20T09:16:03;6.80;99.90
13682;DHT22;6913;49.892;7.936;2023-12-20T09:18:30;6.30;99.90
13682;DHT22;6913;49.892;7.936;2023-12-20T09:20:56;6.50;99.90
13682;DHT22;6913;49.892;7.936;2023-12-20T09:23:23;6.10;99.90
13682;DHT22;6913;49.892;7.936;2023-12-20T09:25:50;6.10;99.90
13682;DHT22;6913;49.892;7.936;2023-12-20T09:28:17;6.30;99.90
13682;DHT22;6913;49.892;7.936;2023-12-20T09:30:44;6.30;99.90
13682;DHT22;6913;49.892;7.936;2023-12-20T09:33:13;6.40;99.90
13682;DHT22;6913;49.892;7.936;2023-12-20T09:35:40;6.60;99.90
13682;DHT22;6913;49.892;7.936;2023-12-20T09:38:07;6.00;99.90
13682;DHT22;6913;49.892;7.936;2023-12-20T09:40:35;6.00;99.90
13682;DHT22;6913;49.892;7.936;2023-12-20T09:43:04;6.30;99.90
13682;DHT22;6913;49.892;7.936;2023-12-20T09:45:31;6.00;99.90
13682;DHT22;6913;49.892;7.936;2023-12-20T09:47:58;6.00;99.90
13682;DHT22;6913;49.892;7.936;2023-12-20T09:50:27;6.00;99.90
13682;DHT22;6913;49.892;7.936;2023-12-20T09:52:57;6.00;99.90
13682;DHT22;6913;49.892;7.936;2023-12-20T09:55:25;6.20;99.90
13682;DHT22;6913;49.892;7.936;2023-12-20T09:57:52;6.30;99.90
13682;DHT22;6913;49.892;7.936;2023-12-20T10:00:19;6.10;99.90
13682;DHT22;6913;49.892;7.936;2023-12-20T10:02:50;6.10;99.90
13682;DHT22;6913;49.892;7.936;2023-12-20T10:05:18;6.10;99.90
13682;DHT22;6913;49.892;7.936;2023-12-20T10:07:47;6.20;99.90
13682;DHT22;6913;49.892;7.936;2023-12-20T10:10:14;6.30;99.90
13682;DHT22;6913;49.892;7.936;2023-12-20T10:13:01;6.60;99.90
13682;DHT22;6913;49.892;7.936;2023-12-20T10:15:28;6.30;99.90
13682;DHT22;6913;49.892;7.936;2023-12-20T10:17:55;6.40;99.90
13682;DHT22;6913;49.892;7.936;2023-12-20T10:20:22;6.40;99.90
13682;DHT22;6913;49.892;7.936;2023-12-20T10:22:51;6.80;99.90
13682;DHT22;6913;49.892;7.936;2023-12-20T10:25:19;6.70;99.90
13682;DHT22;6913;49.892;7.936;2023-12-20T10:27:46;6.50;99.90
13682;DHT22;6913;49.892;7.936;2023-12-20T10:30:13;6.80;99.90
13682;DHT22;6913;49.892;7.936;2023-12-20T10:32:40;6.60;99.90
13682;DHT22;6913;49.892;7.936;2023-12-20T10:35:08;6.60;99.90
13682;DHT22;6913;49.892;7.936;2023-12-20T10:37:36;6.60;99.90
13682;DHT22;6913;49.892;7.936;2023-12-20T10:40:05;6.90;99.90
13682;DHT22;6913;49.892;7.936;2023-12-20T10:42:33;6.60;99.90
13682;DHT22;6913;49.892;7.936;2023-12-20T10:45:01;7.00;99.90
13682;DHT22;6913;49.892;7.936;2023-12-20T10:47:30;6.70;99.90
13682;DHT22;6913;49.892;7.936;2023-12-20T10:49:59;6.70;99.90
13682;DHT22;6913;49.892;7.936;2023-12-20T10:52:28;6.70;99.90
13682;DHT22;6913;49.892;7.936;2023-12-20T10:54:56;6.80;99.90
13682;DHT22;6913;49.892;7.936;2023-12-20T10:57:27;6.90;99.90
13682;DHT22;6913;49.892;7.936;2023-12-20T10:59:54;7.40;99.90
13682;DHT22;6913;49.892;7.936;2023-12-20T11:02:22;7.00;99.90
13682;DHT22;6913;49.892;7.936;2023-12-20T11:04:55;7.00;99.90
13682;DHT22;6913;49.892;7.936;2023-12-20T11:07:29;7.10;99.90
13682;DHT22;6913;49.892;7.936;2023-12-20T11:10:01;7.10;99.90
13682;DHT22;6913;49.892;7.936;2023-12-20T11:12:38;7.50;99.90
13682;DHT22;6913;49.892;7.936;2023-12-20T11:15:07;7.20;99.90
13682;DHT22;6913;49.892;7.936;2023-12-20T11:17:34;7.30;99.90
13682;DHT22;6913;49.892;7.936;2023-12-20T11:20:08;7.30;99.90
13682;DHT22;6913;49.892;7.936;2023-12-20T11:22:53;7.30;99.90
13682;DHT22;6913;49.892;7.936;2023-12-20T11:25:20;7.30;99.90
13682;DHT22;6913;49.892;7.936;2023-12-20T11:28:10;7.60;99.90
13682;DHT22;6913;49.892;7.936;2023-12-20T11:30:42;7.40;99.90
13682;DHT22;6913;49.892;7.936;2023-12-20T11:33:09;7.60;99.90
13682;DHT22;6913;49.892;7.936;2023-12-20T11:35:36;8.20;99.90
13682;DHT22;6913;49.892;7.936;2023-12-20T11:38:07;7.90;99.90
13682;DHT22;6913;49.892;7.936;2023-12-20T11:40:34;7.80;99.90
13682;DHT22;6913;49.892;7.936;2023-12-20T11:43:02;7.60;99.90
13682;DHT22;6913;49.892;7.936;2023-12-20T11:45:30;7.50;99.90
13682;DHT22;6913;49.892;7.936;2023-12-20T11:47:58;7.80;99.90
13682;DHT22;6913;49.892;7.936;2023-12-20T11:50:25;7.70;99.90
13682;DHT22;6913;49.892;7.936;2023-12-20T11:52:54;7.90;99.90
13682;DHT22;6913;49.892;7.936;2023-12-20T11:55:21;7.30;99.90
13682;DHT22;6913;49.892;7.936;2023-12-20T11:57:50;7.40;99.90
13682;DHT22;6913;49.892;7.936;2023-12-20T12:00:17;7.30;99.90
13682;DHT22;6913;49.892;7.936;2023-12-20T12:02:56;7.30;99.90
13682;DHT22;6913;49.892;7.936;2023-12-20T12:05:23;7.70;99.90
13682;DHT22;6913;49.892;7.936;2023-12-20T12:07:51;7.60;99.90
13682;DHT22;6913;49.892;7.936;2023-12-20T12:10:18;8.00;99.90
13682;DHT22;6913;49.892;7.936;2023-12-20T12:12:46;8.30;99.90
13682;DHT22;6913;49.892;7.936;2023-12-20T12:15:14;8.30;99.90
13682;DHT22;6913;49.892;7.936;2023-12-20T12:17:41;8.40;99.90
13682;DHT22;6913;49.892;7.936;2023-12-20T12:20:09;8.30;99.90
13682;DHT22;6913;49.892;7.936;2023-12-20T12:22:37;8.60;99.90
13682;DHT22;6913;49.892;7.936;2023-12-20T12:25:10;8.80;99.90
13682;DHT22;6913;49.892;7.936;2023-12-20T12:27:40;8.90;99.90
13682;DHT22;6913;49.892;7.936;2023-12-20T12:30:09;9.00;99.90
13682;DHT22;6913;49.892;7.936;2023-12-20T12:32:38;9.20;99.90
13682;DHT22;6913;49.892;7.936;2023-12-20T12:35:06;9.30;99.90
13682;DHT22;6913;49.892;7.936;2023-12-20T12:37:38;9.00;99.90
13682;DHT22;6913;49.892;7.936;2023-12-20T12:40:06;9.20;99.90
13682;DHT22;6913;49.892;7.936;2023-12-20T12:42:33;8.80;99.90
13682;DHT22;6913;49.892;7.936;2023-12-20T12:45:00;9.00;99.90
13682;DHT22;6913;49.892;7.936;2023-12-20T12:47:27;8.80;99.90
13682;DHT22;6913;49.892;7.936;2023-12-20T12:49:54;9.00;99.90
13682;DHT22;6913;49.892;7.936;2023-12-20T12:52:21;8.90;99.90
13682;DHT22;6913;49.892;7.936;2023-12-20T12:54:49;8.80;99.90
13682;DHT22;6913;49.892;7.936;2023-12-20T12:57:16;8.60;99.90
13682;DHT22;6913;49.892;7.936;2023-12-20T12:59:44;8.40;99.90
13682;DHT22;6913;49.892;7.936;2023-12-20T13:02:12;8.40;99.90
13682;DHT22;6913;49.892;7.936;2023-12-20T13:04:39;8.40;99.90
13682;DHT22;6913;49.892;7.936;2023-12-20T13:07:06;8.60;99.90
13682;DHT22;6913;49.892;7.936;2023-12-20T13:09:33;8.30;99.90
13682;DHT22;6913;49.892;7.936;2023-12-20T13:12:02;8.30;99.90
13682;DHT22;6913;49.892;7.936;2023-12-20T13:14:30;8.20;99.90
13682;DHT22;6913;49.892;7.936;2023-12-20T13:16:58;8.10;99.90
13682;DHT22;6913;49.892;7.936;2023-12-20T13:19:25;8.10;99.90
13682;DHT22;6913;49.892;7.936;2023-12-20T13:21:52;8.30;99.90
13682;DHT22;6913;49.892;7.936;2023-12-20T13:24:19;8.30;99.90
13682;DHT22;6913;49.892;7.936;2023-12-20T13:26:46;8.00;99.90
13682;DHT22;6913;49.892;7.936;2023-12-20T13:29:14;8.00;99.90
13682;DHT22;6913;49.892;7.936;2023-12-20T13:31:41;8.40;99.90
13682;DHT22;6913;49.892;7.936;2023-12-20T13:34:08;8.10;99.90
13682;DHT22;6913;49.892;7.936;2023-12-20T13:36:35;8.10;99.90
13682;DHT22;6913;49.892;7.936;2023-12-20T13:39:03;8.20;99.90
13682;DHT22;6913;49.892;7.936;2023-12-20T13:41:30;7.80;99.90
13682;DHT22;6913;49.892;7.936;2023-12-20T13:43:57;7.80;99.90
13682;DHT22;6913;49.892;7.936;2023-12-20T13:46:26;7.80;99.90
13682;DHT22;6913;49.892;7.936;2023-12-20T13:48:53;7.70;99.90
13682;DHT22;6913;49.892;7.936;2023-12-20T13:51:19;7.70;99.90
13682;DHT22;6913;49.892;7.936;2023-12-20T13:53:48;7.80;99.90
13682;DHT22;6913;49.892;7.936;2023-12-20T13:56:15;7.90;99.90
13682;DHT22;6913;49.892;7.936;2023-12-20T13:58:42;7.90;99.90
13682;DHT22;6913;49.892;7.936;2023-12-20T14:01:09;7.90;99.90
13682;DHT22;6913;49.892;7.936;2023-12-20T14:03:38;8.20;99.90
13682;DHT22;6913;49.892;7.936;2023-12-20T14:06:06;8.30;99.90
13682;DHT22;6913;49.892;7.936;2023-12-20T14:08:33;7.90;99.90
13682;DHT22;6913;49.892;7.936;2023-12-20T14:11:01;7.90;99.90
13682;DHT22;6913;49.892;7.936;2023-12-20T14:13:28;8.00;99.90
13682;DHT22;6913;49.892;7.936;2023-12-20T14:15:55;7.80;99.90
13682;DHT22;6913;49.892;7.936;2023-12-20T14:18:22;8.00;99.90
13682;DHT22;6913;49.892;7.936;2023-12-20T14:20:50;8.00;99.90
13682;DHT22;6913;49.892;7.936;2023-12-20T14:23:18;7.70;99.90
13682;DHT22;6913;49.892;7.936;2023-12-20T14:25:45;7.60;99.90
13682;DHT22;6913;49.892;7.936;2023-12-20T14:28:12;7.60;99.90
13682;DHT22;6913;49.892;7.936;2023-12-20T14:30:40;8.40;99.90
13682;DHT22;6913;49.892;7.936;2023-12-20T14:33:07;7.60;99.90
13682;DHT22;6913;49.892;7.936;2023-12-20T14:35:33;7.50;99.90
13682;DHT22;6913;49.892;7.936;2023-12-20T14:38:02;7.70;99.90
13682;DHT22;6913;49.892;7.936;2023-12-20T14:40:29;7.50;99.90
13682;DHT22;6913;49.892;7.936;2023-12-20T14:42:55;7.40;99.90
13682;DHT22;6913;49.892;7.936;2023-12-20T14:45:23;7.40;99.90
13682;DHT22;6913;49.892;7.936;2023-12-20T14:47:49;7.40;99.90
13682;DHT22;6913;49.892;7.936;2023-12-20T14:50:16;7.40;99.90
13682;DHT22;6913;49.892;7.936;2023-12-20T14:52:44;7.30;99.90
13682;DHT22;6913;49.892;7.936;2023-12-20T14:55:13;7.30;99.90
13682;DHT22;6913;49.892;7.936;2023-12-20T14:57:40;7.30;99.90
13682;DHT22;6913;49.892;7.936;2023-12-20T15:00:07;7.40;99.90
13682;DHT22;6913;49.892;7.936;2023-12-20T15:02:34;7.20;99.90
13682;DHT22;6913;49.892;7.936;2023-12-20T15:05:01;7.20;99.90
13682;DHT22;6913;49.892;7.936;2023-12-20T15:07:28;7.20;99.90
13682;DHT22;6913;49.892;7.936;2023-12-20T15:09:55;7.20;99.90
13682;DHT22;6913;49.892;7.936;2023-12-20T15:12:23;7.20;99.90
13682;DHT22;6913;49.892;7.936;2023-12-20T15:14:50;7.60;99.90
13682;DHT22;6913;49.892;7.936;2023-12-20T15:17:17;7.20;99.90
13682;DHT22;6913;49.892;7.936;2023-12-20T15:19:44;7.20;99.90
13682;DHT22;6913;49.892;7.936;2023-12-20T15:22:12;7.20;99.90
13682;DHT22;6913;49.892;7.936;2023-12-20T15:24:38;7.10;99.90
13682;DHT22;6913;49.892;7.936;2023-12-20T15:27:08;7.20;99.90
13682;DHT22;6913;49.892;7.936;2023-12-20T15:29:36;7.10;99.90
13682;DHT22;6913;49.892;7.936;2023-12-20T15:32:04;7.10;99.90
13682;DHT22;6913;49.892;7.936;2023-12-20T15:34:31;7.10;99.90
13682;DHT22;6913;49.892;7.936;2023-12-20T15:36:58;7.10;99.90
13682;DHT22;6913;49.892;7.936;2023-12-20T15:39:25;7.20;99.90
13682;DHT22;6913;49.892;7.936;2023-12-20T15:41:53;7.00;99.90
13682;DHT22;6913;49.892;7.936;2023-12-20T15:44:20;7.30;99.90
13682;DHT22;6913;49.892;7.936;2023-12-20T15:46:48;7.00;99.90
13682;DHT22;6913;49.892;7.936;2023-12-20T15:49:15;7.00;99.90
13682;DHT22;6913;49.892;7.936;2023-12-20T15:51:43;7.00;99.90
13682;DHT22;6913;49.892;7.936;2023-12-20T15:54:10;7.00;99.90
13682;DHT22;6913;49.892;7.936;2023-12-20T15:56:37;7.00;99.90
13682;DHT22;6913;49.892;7.936;2023-12-20T15:59:06;6.90;99.90
13682;DHT22;6913;49.892;7.936;2023-12-20T16:01:35;6.90;99.90
13682;DHT22;6913;49.892;7.936;2023-12-20T16:04:04;7.20;99.90